Terminal Aerodrome Forecast
Issued by NWS Sterling, VA

Home | Current Version | Previous Version | Text Only | Print | Product List | Glossary On
Versions: 1 2 3 4 5 6 7 8 9 10 11 12 13 14 15 16 17 18 19 20 21
294
FTUS41 KLWX 081120
TAFIAD
TAF
KIAD 081120Z 0812/0918 35006KT P6SM BKN200
     FM081700 13005KT P6SM BKN040
     FM082200 11006KT P6SM -RA OVC020
     FM090200 10006KT 3SM -RASN OVC012
     FM090500 06005KT 1/2SM SN OVC005
     FM091000 02006KT 2SM -SN OVC007=

USA.gov is the U.S. government's official web portal to all federal, state and local government web resources and services.